sensor_id;sensor_type;location;lat;lon;timestamp;temperature;humidity
11764;DHT22;5939;56.522;14.950;2022-11-15T00:00:06;9.70;99.90
11764;DHT22;5939;56.522;14.950;2022-11-15T00:02:32;9.70;99.90
11764;DHT22;5939;56.522;14.950;2022-11-15T00:04:57;9.70;99.90
11764;DHT22;5939;56.522;14.950;2022-11-15T00:07:23;9.70;99.90
11764;DHT22;5939;56.522;14.950;2022-11-15T00:09:48;9.70;99.90
11764;DHT22;5939;56.522;14.950;2022-11-15T00:12:14;9.70;99.90
11764;DHT22;5939;56.522;14.950;2022-11-15T00:14:40;9.70;99.90
11764;DHT22;5939;56.522;14.950;2022-11-15T00:17:05;9.70;99.90
11764;DHT22;5939;56.522;14.950;2022-11-15T00:19:31;9.70;99.90
11764;DHT22;5939;56.522;14.950;2022-11-15T00:21:57;9.70;99.90
11764;DHT22;5939;56.522;14.950;2022-11-15T00:24:22;9.70;99.90
11764;DHT22;5939;56.522;14.950;2022-11-15T00:26:48;9.70;99.90
11764;DHT22;5939;56.522;14.950;2022-11-15T00:29:14;9.70;99.90
11764;DHT22;5939;56.522;14.950;2022-11-15T00:31:39;9.70;99.90
11764;DHT22;5939;56.522;14.950;2022-11-15T00:34:05;9.70;99.90
11764;DHT22;5939;56.522;14.950;2022-11-15T00:36:33;9.70;99.90
11764;DHT22;5939;56.522;14.950;2022-11-15T00:39:00;9.70;99.90
11764;DHT22;5939;56.522;14.950;2022-11-15T00:41:25;9.70;99.90
11764;DHT22;5939;56.522;14.950;2022-11-15T00:43:51;9.70;99.90
11764;DHT22;5939;56.522;14.950;2022-11-15T00:46:17;9.70;99.90
11764;DHT22;5939;56.522;14.950;2022-11-15T00:48:42;9.70;99.90
11764;DHT22;5939;56.522;14.950;2022-11-15T00:51:08;9.70;99.90
11764;DHT22;5939;56.522;14.950;2022-11-15T00:53:34;9.70;99.90
11764;DHT22;5939;56.522;14.950;2022-11-15T00:55:59;9.70;99.90
11764;DHT22;5939;56.522;14.950;2022-11-15T00:58:25;9.70;99.90
11764;DHT22;5939;56.522;14.950;2022-11-15T01:00:51;9.70;99.90
11764;DHT22;5939;56.522;14.950;2022-11-15T01:03:16;9.70;99.90
11764;DHT22;5939;56.522;14.950;2022-11-15T01:05:42;9.70;99.90
11764;DHT22;5939;56.522;14.950;2022-11-15T01:08:13;9.60;99.90
11764;DHT22;5939;56.522;14.950;2022-11-15T01:10:38;9.70;99.90
11764;DHT22;5939;56.522;14.950;2022-11-15T01:13:04;9.70;99.90
11764;DHT22;5939;56.522;14.950;2022-11-15T01:15:30;9.70;99.90
11764;DHT22;5939;56.522;14.950;2022-11-15T01:17:55;9.70;99.90
11764;DHT22;5939;56.522;14.950;2022-11-15T01:20:21;9.60;99.90
11764;DHT22;5939;56.522;14.950;2022-11-15T01:22:46;9.70;99.90
11764;DHT22;5939;56.522;14.950;2022-11-15T01:25:12;9.70;99.90
11764;DHT22;5939;56.522;14.950;2022-11-15T01:27:38;9.70;99.90
11764;DHT22;5939;56.522;14.950;2022-11-15T01:30:04;9.70;99.90
11764;DHT22;5939;56.522;14.950;2022-11-15T01:32:30;9.70;99.90
11764;DHT22;5939;56.522;14.950;2022-11-15T01:34:55;9.70;99.90
11764;DHT22;5939;56.522;14.950;2022-11-15T01:37:21;9.70;99.90
11764;DHT22;5939;56.522;14.950;2022-11-15T01:39:46;9.70;99.90
11764;DHT22;5939;56.522;14.950;2022-11-15T01:42:13;9.60;99.90
11764;DHT22;5939;56.522;14.950;2022-11-15T01:44:52;9.70;99.90
11764;DHT22;5939;56.522;14.950;2022-11-15T01:47:32;9.60;99.90
11764;DHT22;5939;56.522;14.950;2022-11-15T01:50:08;9.60;99.90
11764;DHT22;5939;56.522;14.950;2022-11-15T01:52:36;9.70;99.90
11764;DHT22;5939;56.522;14.950;2022-11-15T01:55:23;9.60;99.90
11764;DHT22;5939;56.522;14.950;2022-11-15T01:57:53;9.60;99.90
11764;DHT22;5939;56.522;14.950;2022-11-15T02:00:19;9.60;99.90
11764;DHT22;5939;56.522;14.950;2022-11-15T02:02:45;9.60;99.90
11764;DHT22;5939;56.522;14.950;2022-11-15T02:05:11;9.60;99.90
11764;DHT22;5939;56.522;14.950;2022-11-15T02:07:37;9.60;99.90
11764;DHT22;5939;56.522;14.950;2022-11-15T02:10:07;9.60;99.90
11764;DHT22;5939;56.522;14.950;2022-11-15T02:12:33;9.60;99.90
11764;DHT22;5939;56.522;14.950;2022-11-15T02:14:59;9.60;99.90
11764;DHT22;5939;56.522;14.950;2022-11-15T02:29:02;9.60;99.90
11764;DHT22;5939;56.522;14.950;2022-11-15T02:34:35;9.60;99.90
11764;DHT22;5939;56.522;14.950;2022-11-15T02:37:39;9.60;99.90
11764;DHT22;5939;56.522;14.950;2022-11-15T02:42:36;9.60;99.90
11764;DHT22;5939;56.522;14.950;2022-11-15T02:45:30;9.60;99.90
11764;DHT22;5939;56.522;14.950;2022-11-15T02:47:59;9.60;99.90
11764;DHT22;5939;56.522;14.950;2022-11-15T02:50:29;9.60;99.90
11764;DHT22;5939;56.522;14.950;2022-11-15T02:52:55;9.60;99.90
11764;DHT22;5939;56.522;14.950;2022-11-15T02:55:30;9.60;99.90
11764;DHT22;5939;56.522;14.950;2022-11-15T02:58:17;9.60;99.90
11764;DHT22;5939;56.522;14.950;2022-11-15T03:11:23;9.60;99.90
11764;DHT22;5939;56.522;14.950;2022-11-15T03:17:19;9.60;99.90
11764;DHT22;5939;56.522;14.950;2022-11-15T03:19:51;9.60;99.90
11764;DHT22;5939;56.522;14.950;2022-11-15T03:22:21;9.60;99.90
11764;DHT22;5939;56.522;14.950;2022-11-15T03:25:00;9.60;99.90
11764;DHT22;5939;56.522;14.950;2022-11-15T03:27:30;9.60;99.90
11764;DHT22;5939;56.522;14.950;2022-11-15T03:30:00;9.60;99.90
11764;DHT22;5939;56.522;14.950;2022-11-15T03:32:32;9.60;99.90
11764;DHT22;5939;56.522;14.950;2022-11-15T03:35:09;9.60;99.90
11764;DHT22;5939;56.522;14.950;2022-11-15T03:40:27;9.60;99.90
11764;DHT22;5939;56.522;14.950;2022-11-15T03:43:15;9.60;99.90
11764;DHT22;5939;56.522;14.950;2022-11-15T03:45:55;9.50;99.90
11764;DHT22;5939;56.522;14.950;2022-11-15T03:48:24;9.60;99.90
11764;DHT22;5939;56.522;14.950;2022-11-15T03:50:52;9.60;99.90
11764;DHT22;5939;56.522;14.950;2022-11-15T03:53:18;9.60;99.90
11764;DHT22;5939;56.522;14.950;2022-11-15T03:55:44;9.60;99.90
11764;DHT22;5939;56.522;14.950;2022-11-15T03:58:10;9.60;99.90
11764;DHT22;5939;56.522;14.950;2022-11-15T04:00:35;9.50;99.90
11764;DHT22;5939;56.522;14.950;2022-11-15T04:03:01;9.60;99.90
11764;DHT22;5939;56.522;14.950;2022-11-15T04:05:26;9.60;99.90
11764;DHT22;5939;56.522;14.950;2022-11-15T04:07:52;9.60;99.90
11764;DHT22;5939;56.522;14.950;2022-11-15T04:10:18;9.50;99.90
11764;DHT22;5939;56.522;14.950;2022-11-15T04:12:45;9.60;99.90
11764;DHT22;5939;56.522;14.950;2022-11-15T04:15:24;9.60;99.90
11764;DHT22;5939;56.522;14.950;2022-11-15T04:17:52;9.50;99.90
11764;DHT22;5939;56.522;14.950;2022-11-15T04:20:19;9.50;99.90
11764;DHT22;5939;56.522;14.950;2022-11-15T04:23:07;9.50;99.90
11764;DHT22;5939;56.522;14.950;2022-11-15T04:25:54;9.60;99.90
11764;DHT22;5939;56.522;14.950;2022-11-15T04:28:20;9.50;99.90
11764;DHT22;5939;56.522;14.950;2022-11-15T04:30:46;9.50;99.90
11764;DHT22;5939;56.522;14.950;2022-11-15T04:33:12;9.60;99.90
11764;DHT22;5939;56.522;14.950;2022-11-15T04:35:37;9.60;99.90
11764;DHT22;5939;56.522;14.950;2022-11-15T04:38:05;9.50;99.90
11764;DHT22;5939;56.522;14.950;2022-11-15T04:40:31;9.50;99.90
11764;DHT22;5939;56.522;14.950;2022-11-15T04:42:57;9.60;99.90
11764;DHT22;5939;56.522;14.950;2022-11-15T04:45:22;9.50;99.90
11764;DHT22;5939;56.522;14.950;2022-11-15T04:47:48;9.50;99.90
11764;DHT22;5939;56.522;14.950;2022-11-15T04:50:15;9.50;99.90
11764;DHT22;5939;56.522;14.950;2022-11-15T04:52:42;9.50;99.90
11764;DHT22;5939;56.522;14.950;2022-11-15T04:55:10;9.50;99.90
11764;DHT22;5939;56.522;14.950;2022-11-15T04:57:36;9.50;99.90
11764;DHT22;5939;56.522;14.950;2022-11-15T05:00:07;9.50;99.90
11764;DHT22;5939;56.522;14.950;2022-11-15T05:02:33;9.50;99.90
11764;DHT22;5939;56.522;14.950;2022-11-15T05:05:18;9.50;99.90
11764;DHT22;5939;56.522;14.950;2022-11-15T05:07:44;9.60;99.90
11764;DHT22;5939;56.522;14.950;2022-11-15T05:10:09;9.50;99.90
11764;DHT22;5939;56.522;14.950;2022-11-15T05:12:36;9.50;99.90
11764;DHT22;5939;56.522;14.950;2022-11-15T05:15:01;9.50;99.90
11764;DHT22;5939;56.522;14.950;2022-11-15T05:17:27;9.50;99.90
11764;DHT22;5939;56.522;14.950;2022-11-15T05:19:53;9.50;99.90
11764;DHT22;5939;56.522;14.950;2022-11-15T05:22:19;9.50;99.90
11764;DHT22;5939;56.522;14.950;2022-11-15T05:24:44;9.50;99.90
11764;DHT22;5939;56.522;14.950;2022-11-15T05:27:10;9.50;99.90
11764;DHT22;5939;56.522;14.950;2022-11-15T05:29:36;9.60;99.90
11764;DHT22;5939;56.522;14.950;2022-11-15T05:32:04;9.50;99.90
11764;DHT22;5939;56.522;14.950;2022-11-15T05:34:30;9.50;99.90
11764;DHT22;5939;56.522;14.950;2022-11-15T05:36:56;9.50;99.90
11764;DHT22;5939;56.522;14.950;2022-11-15T05:39:21;9.50;99.90
11764;DHT22;5939;56.522;14.950;2022-11-15T05:41:59;9.60;99.90
11764;DHT22;5939;56.522;14.950;2022-11-15T05:44:27;9.50;99.90
11764;DHT22;5939;56.522;14.950;2022-11-15T05:46:54;9.50;99.90
11764;DHT22;5939;56.522;14.950;2022-11-15T05:49:25;9.50;99.90
11764;DHT22;5939;56.522;14.950;2022-11-15T05:51:53;9.50;99.90
11764;DHT22;5939;56.522;14.950;2022-11-15T05:54:20;9.50;99.90
11764;DHT22;5939;56.522;14.950;2022-11-15T05:56:46;9.50;99.90
11764;DHT22;5939;56.522;14.950;2022-11-15T05:59:12;9.50;99.90
11764;DHT22;5939;56.522;14.950;2022-11-15T06:01:39;9.50;99.90
11764;DHT22;5939;56.522;14.950;2022-11-15T06:04:05;9.50;99.90
11764;DHT22;5939;56.522;14.950;2022-11-15T06:06:30;9.50;99.90
11764;DHT22;5939;56.522;14.950;2022-11-15T06:08:56;9.50;99.90
11764;DHT22;5939;56.522;14.950;2022-11-15T06:11:21;9.50;99.90
11764;DHT22;5939;56.522;14.950;2022-11-15T06:13:47;9.50;99.90
11764;DHT22;5939;56.522;14.950;2022-11-15T06:16:13;9.50;99.90
11764;DHT22;5939;56.522;14.950;2022-11-15T06:18:38;9.50;99.90
11764;DHT22;5939;56.522;14.950;2022-11-15T06:21:05;9.50;99.90
11764;DHT22;5939;56.522;14.950;2022-11-15T06:23:34;9.50;99.90
11764;DHT22;5939;56.522;14.950;2022-11-15T06:26:01;9.50;99.90
11764;DHT22;5939;56.522;14.950;2022-11-15T06:28:31;9.50;99.90
11764;DHT22;5939;56.522;14.950;2022-11-15T06:31:08;9.50;99.90
11764;DHT22;5939;56.522;14.950;2022-11-15T06:33:34;9.50;99.90
11764;DHT22;5939;56.522;14.950;2022-11-15T06:36:05;9.50;99.90
11764;DHT22;5939;56.522;14.950;2022-11-15T06:38:31;9.50;99.90
11764;DHT22;5939;56.522;14.950;2022-11-15T06:41:07;9.50;99.90
11764;DHT22;5939;56.522;14.950;2022-11-15T06:43:34;9.50;99.90
11764;DHT22;5939;56.522;14.950;2022-11-15T06:46:01;9.50;99.90
11764;DHT22;5939;56.522;14.950;2022-11-15T06:48:28;9.50;99.90
11764;DHT22;5939;56.522;14.950;2022-11-15T06:50:54;9.50;99.90
11764;DHT22;5939;56.522;14.950;2022-11-15T06:53:21;9.50;99.90
11764;DHT22;5939;56.522;14.950;2022-11-15T06:55:46;9.50;99.90
11764;DHT22;5939;56.522;14.950;2022-11-15T06:58:12;9.50;99.90
11764;DHT22;5939;56.522;14.950;2022-11-15T07:00:38;9.50;99.90
11764;DHT22;5939;56.522;14.950;2022-11-15T07:03:03;9.50;99.90
11764;DHT22;5939;56.522;14.950;2022-11-15T07:05:29;9.50;99.90
11764;DHT22;5939;56.522;14.950;2022-11-15T07:07:56;9.50;99.90
11764;DHT22;5939;56.522;14.950;2022-11-15T07:10:23;9.40;99.90
11764;DHT22;5939;56.522;14.950;2022-11-15T07:12:50;9.50;99.90
11764;DHT22;5939;56.522;14.950;2022-11-15T07:15:20;9.50;99.90
11764;DHT22;5939;56.522;14.950;2022-11-15T07:17:46;9.50;99.90
11764;DHT22;5939;56.522;14.950;2022-11-15T07:20:12;9.50;99.90
11764;DHT22;5939;56.522;14.950;2022-11-15T07:22:39;9.50;99.90
11764;DHT22;5939;56.522;14.950;2022-11-15T07:25:05;9.40;99.90
11764;DHT22;5939;56.522;14.950;2022-11-15T07:27:31;9.40;99.90
11764;DHT22;5939;56.522;14.950;2022-11-15T07:29:56;9.40;99.90
11764;DHT22;5939;56.522;14.950;2022-11-15T07:32:22;9.50;99.90
11764;DHT22;5939;56.522;14.950;2022-11-15T07:34:48;9.40;99.90
11764;DHT22;5939;56.522;14.950;2022-11-15T07:37:13;9.40;99.90
11764;DHT22;5939;56.522;14.950;2022-11-15T07:39:39;9.40;99.90
11764;DHT22;5939;56.522;14.950;2022-11-15T07:42:05;9.40;99.90
11764;DHT22;5939;56.522;14.950;2022-11-15T07:44:49;9.40;99.90
11764;DHT22;5939;56.522;14.950;2022-11-15T07:47:15;9.40;99.90
11764;DHT22;5939;56.522;14.950;2022-11-15T07:49:40;9.40;99.90
11764;DHT22;5939;56.522;14.950;2022-11-15T07:52:06;9.40;99.90
11764;DHT22;5939;56.522;14.950;2022-11-15T07:54:32;9.40;99.90
11764;DHT22;5939;56.522;14.950;2022-11-15T07:56:57;9.40;99.90
11764;DHT22;5939;56.522;14.950;2022-11-15T07:59:23;9.40;99.90
11764;DHT22;5939;56.522;14.950;2022-11-15T08:01:49;9.40;99.90
11764;DHT22;5939;56.522;14.950;2022-11-15T08:04:14;9.40;99.90
11764;DHT22;5939;56.522;14.950;2022-11-15T08:06:40;9.40;99.90
11764;DHT22;5939;56.522;14.950;2022-11-15T08:09:06;9.40;99.90
11764;DHT22;5939;56.522;14.950;2022-11-15T08:11:31;9.40;99.90
11764;DHT22;5939;56.522;14.950;2022-11-15T08:13:58;9.40;99.90
11764;DHT22;5939;56.522;14.950;2022-11-15T08:16:23;9.40;99.90
11764;DHT22;5939;56.522;14.950;2022-11-15T08:18:49;9.40;99.90
11764;DHT22;5939;56.522;14.950;2022-11-15T08:21:19;9.40;99.90
11764;DHT22;5939;56.522;14.950;2022-11-15T08:23:45;9.40;99.90
11764;DHT22;5939;56.522;14.950;2022-11-15T08:26:11;9.40;99.90
11764;DHT22;5939;56.522;14.950;2022-11-15T08:28:37;9.40;99.90
11764;DHT22;5939;56.522;14.950;2022-11-15T08:31:03;9.40;99.90
11764;DHT22;5939;56.522;14.950;2022-11-15T08:33:30;9.40;99.90
11764;DHT22;5939;56.522;14.950;2022-11-15T08:36:00;9.40;99.90
11764;DHT22;5939;56.522;14.950;2022-11-15T08:38:26;9.40;99.90
11764;DHT22;5939;56.522;14.950;2022-11-15T08:40:59;9.40;99.90
11764;DHT22;5939;56.522;14.950;2022-11-15T08:43:26;9.40;99.90
11764;DHT22;5939;56.522;14.950;2022-11-15T08:45:55;9.40;99.90
11764;DHT22;5939;56.522;14.950;2022-11-15T08:48:21;9.40;99.90
11764;DHT22;5939;56.522;14.950;2022-11-15T08:50:47;9.40;99.90
11764;DHT22;5939;56.522;14.950;2022-11-15T08:53:12;9.30;99.90
11764;DHT22;5939;56.522;14.950;2022-11-15T08:55:39;9.30;99.90
11764;DHT22;5939;56.522;14.950;2022-11-15T08:58:05;9.30;99.90
11764;DHT22;5939;56.522;14.950;2022-11-15T09:00:31;9.30;99.90
11764;DHT22;5939;56.522;14.950;2022-11-15T09:02:57;9.30;99.90
11764;DHT22;5939;56.522;14.950;2022-11-15T09:05:22;9.40;99.90
11764;DHT22;5939;56.522;14.950;2022-11-15T09:07:52;9.30;99.90
11764;DHT22;5939;56.522;14.950;2022-11-15T09:10:18;9.30;99.90
11764;DHT22;5939;56.522;14.950;2022-11-15T09:12:44;9.30;99.90
11764;DHT22;5939;56.522;14.950;2022-11-15T09:15:09;9.40;99.90
11764;DHT22;5939;56.522;14.950;2022-11-15T09:17:35;9.30;99.90
11764;DHT22;5939;56.522;14.950;2022-11-15T09:20:01;9.30;99.90
11764;DHT22;5939;56.522;14.950;2022-11-15T09:22:26;9.30;99.90
11764;DHT22;5939;56.522;14.950;2022-11-15T09:24:52;9.30;99.90
11764;DHT22;5939;56.522;14.950;2022-11-15T09:27:17;9.30;99.90
11764;DHT22;5939;56.522;14.950;2022-11-15T09:29:43;9.30;99.90
11764;DHT22;5939;56.522;14.950;2022-11-15T09:32:09;9.30;99.90
11764;DHT22;5939;56.522;14.950;2022-11-15T09:34:34;9.30;99.90
11764;DHT22;5939;56.522;14.950;2022-11-15T09:37:00;9.30;99.90
11764;DHT22;5939;56.522;14.950;2022-11-15T09:39:26;9.40;99.90
11764;DHT22;5939;56.522;14.950;2022-11-15T09:44:56;9.30;99.90
11764;DHT22;5939;56.522;14.950;2022-11-15T09:49:59;9.30;99.90
11764;DHT22;5939;56.522;14.950;2022-11-15T09:52:26;9.40;99.90
11764;DHT22;5939;56.522;14.950;2022-11-15T09:54:53;9.30;99.90
11764;DHT22;5939;56.522;14.950;2022-11-15T09:57:49;9.40;99.90
11764;DHT22;5939;56.522;14.950;2022-11-15T10:00:25;9.30;99.90
11764;DHT22;5939;56.522;14.950;2022-11-15T10:05:25;9.30;99.90
11764;DHT22;5939;56.522;14.950;2022-11-15T10:10:58;9.30;99.90
11764;DHT22;5939;56.522;14.950;2022-11-15T10:13:27;9.40;99.90
11764;DHT22;5939;56.522;14.950;2022-11-15T10:16:03;9.40;99.90
11764;DHT22;5939;56.522;14.950;2022-11-15T10:18:35;9.30;99.90
11764;DHT22;5939;56.522;14.950;2022-11-15T10:21:17;9.30;99.90
11764;DHT22;5939;56.522;14.950;2022-11-15T10:23:44;9.30;99.90
11764;DHT22;5939;56.522;14.950;2022-11-15T10:26:15;8.40;99.90
11764;DHT22;5939;56.522;14.950;2022-11-15T10:28:41;9.30;99.90
11764;DHT22;5939;56.522;14.950;2022-11-15T10:31:27;9.40;99.90
11764;DHT22;5939;56.522;14.950;2022-11-15T10:34:15;9.40;99.90
11764;DHT22;5939;56.522;14.950;2022-11-15T10:37:00;9.40;99.90
11764;DHT22;5939;56.522;14.950;2022-11-15T10:39:27;9.30;99.90
11764;DHT22;5939;56.522;14.950;2022-11-15T10:41:53;9.30;99.90
11764;DHT22;5939;56.522;14.950;2022-11-15T10:44:28;9.40;99.90
11764;DHT22;5939;56.522;14.950;2022-11-15T10:49:22;9.40;99.90
11764;DHT22;5939;56.522;14.950;2022-11-15T10:51:58;9.30;99.90
11764;DHT22;5939;56.522;14.950;2022-11-15T10:57:00;9.40;99.90
11764;DHT22;5939;56.522;14.950;2022-11-15T10:59:33;9.40;99.90
11764;DHT22;5939;56.522;14.950;2022-11-15T11:02:00;9.40;99.90
11764;DHT22;5939;56.522;14.950;2022-11-15T11:04:26;9.30;99.90
11764;DHT22;5939;56.522;14.950;2022-11-15T11:06:59;9.40;99.90
11764;DHT22;5939;56.522;14.950;2022-11-15T11:09:38;9.40;99.90
11764;DHT22;5939;56.522;14.950;2022-11-15T11:12:10;9.40;99.90
11764;DHT22;5939;56.522;14.950;2022-11-15T11:14:38;9.40;99.90
11764;DHT22;5939;56.522;14.950;2022-11-15T11:17:16;9.40;99.90
11764;DHT22;5939;56.522;14.950;2022-11-15T11:25:33;9.40;99.90
11764;DHT22;5939;56.522;14.950;2022-11-15T11:33:31;9.40;99.90
11764;DHT22;5939;56.522;14.950;2022-11-15T11:36:19;9.40;99.90
11764;DHT22;5939;56.522;14.950;2022-11-15T11:39:17;9.40;99.90
11764;DHT22;5939;56.522;14.950;2022-11-15T11:41:55;9.40;99.90
11764;DHT22;5939;56.522;14.950;2022-11-15T11:44:33;9.40;99.90
11764;DHT22;5939;56.522;14.950;2022-11-15T11:47:11;9.40;99.90
11764;DHT22;5939;56.522;14.950;2022-11-15T11:49:51;9.40;99.90
11764;DHT22;5939;56.522;14.950;2022-11-15T11:52:34;9.40;99.90
11764;DHT22;5939;56.522;14.950;2022-11-15T11:55:16;9.40;99.90
11764;DHT22;5939;56.522;14.950;2022-11-15T11:57:48;9.40;99.90
11764;DHT22;5939;56.522;14.950;2022-11-15T12:00:24;9.40;99.90
11764;DHT22;5939;56.522;14.950;2022-11-15T12:05:43;9.40;99.90
11764;DHT22;5939;56.522;14.950;2022-11-15T12:08:25;9.40;99.90
11764;DHT22;5939;56.522;14.950;2022-11-15T12:11:21;9.40;99.90
11764;DHT22;5939;56.522;14.950;2022-11-15T12:13:50;9.40;99.90
11764;DHT22;5939;56.522;14.950;2022-11-15T12:16:29;9.40;99.90
11764;DHT22;5939;56.522;14.950;2022-11-15T12:19:00;9.40;99.90
11764;DHT22;5939;56.522;14.950;2022-11-15T12:24:20;9.40;99.90
11764;DHT22;5939;56.522;14.950;2022-11-15T12:26:56;9.40;99.90
11764;DHT22;5939;56.522;14.950;2022-11-15T12:32:49;9.60;99.90
11764;DHT22;5939;56.522;14.950;2022-11-15T12:35:34;9.50;99.90
11764;DHT22;5939;56.522;14.950;2022-11-15T12:38:00;9.50;99.90
11764;DHT22;5939;56.522;14.950;2022-11-15T12:40:38;9.40;99.90
11764;DHT22;5939;56.522;14.950;2022-11-15T12:45:40;9.40;99.90
11764;DHT22;5939;56.522;14.950;2022-11-15T13:01:07;9.50;99.90
11764;DHT22;5939;56.522;14.950;2022-11-15T13:03:33;9.50;99.90
11764;DHT22;5939;56.522;14.950;2022-11-15T13:06:02;9.50;99.90
11764;DHT22;5939;56.522;14.950;2022-11-15T13:08:40;9.50;99.90
11764;DHT22;5939;56.522;14.950;2022-11-15T13:11:42;9.50;99.90
11764;DHT22;5939;56.522;14.950;2022-11-15T13:17:26;9.50;99.90
11764;DHT22;5939;56.522;14.950;2022-11-15T13:33:36;9.50;99.90
11764;DHT22;5939;56.522;14.950;2022-11-15T13:36:13;9.50;99.90
11764;DHT22;5939;56.522;14.950;2022-11-15T13:38:41;9.50;99.90
11764;DHT22;5939;56.522;14.950;2022-11-15T13:41:35;9.50;99.90
11764;DHT22;5939;56.522;14.950;2022-11-15T13:44:03;9.50;99.90
11764;DHT22;5939;56.522;14.950;2022-11-15T13:46:31;9.50;99.90
11764;DHT22;5939;56.522;14.950;2022-11-15T13:49:00;9.50;99.90
11764;DHT22;5939;56.522;14.950;2022-11-15T13:51:49;9.50;99.90
11764;DHT22;5939;56.522;14.950;2022-11-15T13:54:20;9.50;99.90
11764;DHT22;5939;56.522;14.950;2022-11-15T13:56:52;9.50;99.90
11764;DHT22;5939;56.522;14.950;2022-11-15T13:59:23;9.50;99.90
11764;DHT22;5939;56.522;14.950;2022-11-15T14:01:50;9.50;99.90
11764;DHT22;5939;56.522;14.950;2022-11-15T14:04:20;9.50;99.90
11764;DHT22;5939;56.522;14.950;2022-11-15T14:06:50;9.50;99.90
11764;DHT22;5939;56.522;14.950;2022-11-15T14:09:38;9.50;99.90
11764;DHT22;5939;56.522;14.950;2022-11-15T14:12:50;9.50;99.90
11764;DHT22;5939;56.522;14.950;2022-11-15T14:15:29;9.50;99.90
11764;DHT22;5939;56.522;14.950;2022-11-15T14:17:55;9.50;99.90
11764;DHT22;5939;56.522;14.950;2022-11-15T14:20:28;9.50;99.90
11764;DHT22;5939;56.522;14.950;2022-11-15T14:22:58;9.50;99.90
11764;DHT22;5939;56.522;14.950;2022-11-15T14:25:26;9.50;99.90
11764;DHT22;5939;56.522;14.950;2022-11-15T14:30:50;9.50;99.90
11764;DHT22;5939;56.522;14.950;2022-11-15T14:35:45;9.50;99.90
11764;DHT22;5939;56.522;14.950;2022-11-15T14:38:11;9.50;99.90
11764;DHT22;5939;56.522;14.950;2022-11-15T14:40:36;9.50;99.90
11764;DHT22;5939;56.522;14.950;2022-11-15T14:43:02;9.50;99.90
11764;DHT22;5939;56.522;14.950;2022-11-15T14:45:28;9.50;99.90
11764;DHT22;5939;56.522;14.950;2022-11-15T14:47:53;9.50;99.90
11764;DHT22;5939;56.522;14.950;2022-11-15T14:50:20;9.50;99.90
11764;DHT22;5939;56.522;14.950;2022-11-15T14:52:47;9.50;99.90
11764;DHT22;5939;56.522;14.950;2022-11-15T14:55:25;9.50;99.90
11764;DHT22;5939;56.522;14.950;2022-11-15T14:57:52;9.50;99.90
11764;DHT22;5939;56.522;14.950;2022-11-15T15:00:18;9.50;99.90
11764;DHT22;5939;56.522;14.950;2022-11-15T15:02:45;9.50;99.90
11764;DHT22;5939;56.522;14.950;2022-11-15T15:05:21;9.40;99.90
11764;DHT22;5939;56.522;14.950;2022-11-15T15:07:47;9.50;99.90
11764;DHT22;5939;56.522;14.950;2022-11-15T15:10:14;9.50;99.90
11764;DHT22;5939;56.522;14.950;2022-11-15T15:12:40;9.50;99.90
11764;DHT22;5939;56.522;14.950;2022-11-15T15:15:13;9.50;99.90
11764;DHT22;5939;56.522;14.950;2022-11-15T15:17:39;9.50;99.90
11764;DHT22;5939;56.522;14.950;2022-11-15T15:20:05;9.40;99.90
11764;DHT22;5939;56.522;14.950;2022-11-15T15:22:31;9.40;99.90
11764;DHT22;5939;56.522;14.950;2022-11-15T15:24:57;9.40;99.90
11764;DHT22;5939;56.522;14.950;2022-11-15T15:27:22;9.40;99.90
11764;DHT22;5939;56.522;14.950;2022-11-15T15:29:48;9.40;99.90
11764;DHT22;5939;56.522;14.950;2022-11-15T15:32:13;9.50;99.90
11764;DHT22;5939;56.522;14.950;2022-11-15T15:34:39;9.40;99.90
11764;DHT22;5939;56.522;14.950;2022-11-15T15:37:19;9.40;99.90
11764;DHT22;5939;56.522;14.950;2022-11-15T15:39:54;9.40;99.90
11764;DHT22;5939;56.522;14.950;2022-11-15T15:42:20;9.40;99.90
11764;DHT22;5939;56.522;14.950;2022-11-15T15:44:47;9.40;99.90
11764;DHT22;5939;56.522;14.950;2022-11-15T15:47:22;9.40;99.90
11764;DHT22;5939;56.522;14.950;2022-11-15T15:49:49;9.40;99.90
11764;DHT22;5939;56.522;14.950;2022-11-15T15:52:15;9.40;99.90
11764;DHT22;5939;56.522;14.950;2022-11-15T15:54:41;9.40;99.90
11764;DHT22;5939;56.522;14.950;2022-11-15T15:57:08;9.40;99.90
11764;DHT22;5939;56.522;14.950;2022-11-15T15:59:36;9.40;99.90
11764;DHT22;5939;56.522;14.950;2022-11-15T16:02:02;9.40;99.90
11764;DHT22;5939;56.522;14.950;2022-11-15T16:04:28;9.30;99.90
11764;DHT22;5939;56.522;14.950;2022-11-15T16:06:58;9.40;99.90
11764;DHT22;5939;56.522;14.950;2022-11-15T16:09:24;9.30;99.90
11764;DHT22;5939;56.522;14.950;2022-11-15T16:12:09;9.30;99.90
11764;DHT22;5939;56.522;14.950;2022-11-15T16:14:35;9.30;99.90
11764;DHT22;5939;56.522;14.950;2022-11-15T16:17:01;9.30;99.90
11764;DHT22;5939;56.522;14.950;2022-11-15T16:19:26;9.30;99.90
11764;DHT22;5939;56.522;14.950;2022-11-15T16:21:52;9.30;99.90
11764;DHT22;5939;56.522;14.950;2022-11-15T16:24:19;9.30;99.90
11764;DHT22;5939;56.522;14.950;2022-11-15T16:26:45;9.30;99.90
11764;DHT22;5939;56.522;14.950;2022-11-15T16:29:12;9.30;99.90
11764;DHT22;5939;56.522;14.950;2022-11-15T16:31:37;9.20;99.90
11764;DHT22;5939;56.522;14.950;2022-11-15T16:34:03;9.20;99.90
11764;DHT22;5939;56.522;14.950;2022-11-15T16:36:30;9.30;99.90
11764;DHT22;5939;56.522;14.950;2022-11-15T16:38:58;9.20;99.90
11764;DHT22;5939;56.522;14.950;2022-11-15T16:41:24;9.20;99.90
11764;DHT22;5939;56.522;14.950;2022-11-15T16:43:50;9.20;99.90
11764;DHT22;5939;56.522;14.950;2022-11-15T16:46:24;9.20;99.90
11764;DHT22;5939;56.522;14.950;2022-11-15T16:48:50;9.20;99.90
11764;DHT22;5939;56.522;14.950;2022-11-15T16:51:16;9.20;99.90
11764;DHT22;5939;56.522;14.950;2022-11-15T16:53:42;9.20;99.90
11764;DHT22;5939;56.522;14.950;2022-11-15T16:56:28;9.20;99.90
11764;DHT22;5939;56.522;14.950;2022-11-15T16:58:55;9.20;99.90
11764;DHT22;5939;56.522;14.950;2022-11-15T17:01:33;9.20;99.90
11764;DHT22;5939;56.522;14.950;2022-11-15T17:04:00;9.20;99.90
11764;DHT22;5939;56.522;14.950;2022-11-15T17:06:38;9.20;99.90
11764;DHT22;5939;56.522;14.950;2022-11-15T17:09:05;9.20;99.90
11764;DHT22;5939;56.522;14.950;2022-11-15T17:11:30;9.20;99.90
11764;DHT22;5939;56.522;14.950;2022-11-15T17:13:57;9.20;99.90
11764;DHT22;5939;56.522;14.950;2022-11-15T17:16:23;9.10;99.90
11764;DHT22;5939;56.522;14.950;2022-11-15T17:18:50;9.10;99.90
11764;DHT22;5939;56.522;14.950;2022-11-15T17:21:18;9.10;99.90
11764;DHT22;5939;56.522;14.950;2022-11-15T17:23:45;9.10;99.90
11764;DHT22;5939;56.522;14.950;2022-11-15T17:26:11;9.10;99.90
11764;DHT22;5939;56.522;14.950;2022-11-15T17:28:38;9.10;99.90
11764;DHT22;5939;56.522;14.950;2022-11-15T17:31:09;9.10;99.90
11764;DHT22;5939;56.522;14.950;2022-11-15T17:33:36;9.10;99.90
11764;DHT22;5939;56.522;14.950;2022-11-15T17:36:05;9.10;99.90
11764;DHT22;5939;56.522;14.950;2022-11-15T17:38:31;9.10;99.90
11764;DHT22;5939;56.522;14.950;2022-11-15T17:41:15;9.00;99.90
11764;DHT22;5939;56.522;14.950;2022-11-15T17:43:41;9.00;99.90
11764;DHT22;5939;56.522;14.950;2022-11-15T17:46:18;9.00;99.90